sensor_id;sensor_type;location;lat;lon;timestamp;temperature;humidity
56162;DHT22;42045;52.986;6.014;2023-04-16T00:00:15;8.40;99.90
56162;DHT22;42045;52.986;6.014;2023-04-16T00:02:40;8.30;99.90
56162;DHT22;42045;52.986;6.014;2023-04-16T00:05:06;8.40;99.90
56162;DHT22;42045;52.986;6.014;2023-04-16T00:07:32;8.40;99.90
56162;DHT22;42045;52.986;6.014;2023-04-16T00:09:57;8.40;99.90
56162;DHT22;42045;52.986;6.014;2023-04-16T00:12:24;8.40;99.90
56162;DHT22;42045;52.986;6.014;2023-04-16T00:14:49;8.40;99.90
56162;DHT22;42045;52.986;6.014;2023-04-16T00:17:15;8.30;99.90
56162;DHT22;42045;52.986;6.014;2023-04-16T00:19:41;8.30;99.90
56162;DHT22;42045;52.986;6.014;2023-04-16T00:22:06;8.30;99.90
56162;DHT22;42045;52.986;6.014;2023-04-16T00:24:32;8.30;99.90
56162;DHT22;42045;52.986;6.014;2023-04-16T00:26:58;8.30;99.90
56162;DHT22;42045;52.986;6.014;2023-04-16T00:29:23;8.30;99.90
56162;DHT22;42045;52.986;6.014;2023-04-16T00:31:49;8.30;99.90
56162;DHT22;42045;52.986;6.014;2023-04-16T00:34:15;8.30;99.90
56162;DHT22;42045;52.986;6.014;2023-04-16T00:36:41;8.20;99.90
56162;DHT22;42045;52.986;6.014;2023-04-16T00:39:06;8.30;99.90
56162;DHT22;42045;52.986;6.014;2023-04-16T00:41:32;8.30;99.90
56162;DHT22;42045;52.986;6.014;2023-04-16T00:43:57;8.30;99.90
56162;DHT22;42045;52.986;6.014;2023-04-16T00:46:24;8.20;99.90
56162;DHT22;42045;52.986;6.014;2023-04-16T00:48:52;8.20;99.90
56162;DHT22;42045;52.986;6.014;2023-04-16T00:51:19;8.30;99.90
56162;DHT22;42045;52.986;6.014;2023-04-16T00:53:46;8.20;99.90
56162;DHT22;42045;52.986;6.014;2023-04-16T00:56:12;8.20;99.90
56162;DHT22;42045;52.986;6.014;2023-04-16T00:58:38;8.20;99.90
56162;DHT22;42045;52.986;6.014;2023-04-16T01:01:04;8.20;99.90
56162;DHT22;42045;52.986;6.014;2023-04-16T01:03:45;8.20;99.90
56162;DHT22;42045;52.986;6.014;2023-04-16T01:06:12;8.20;99.90
56162;DHT22;42045;52.986;6.014;2023-04-16T01:08:39;8.20;99.90
56162;DHT22;42045;52.986;6.014;2023-04-16T01:11:05;8.20;99.90
56162;DHT22;42045;52.986;6.014;2023-04-16T01:13:31;8.20;99.90
56162;DHT22;42045;52.986;6.014;2023-04-16T01:15:58;8.20;99.90
56162;DHT22;42045;52.986;6.014;2023-04-16T01:18:25;8.20;99.90
56162;DHT22;42045;52.986;6.014;2023-04-16T01:20:51;8.20;99.90
56162;DHT22;42045;52.986;6.014;2023-04-16T01:23:16;8.20;99.90
56162;DHT22;42045;52.986;6.014;2023-04-16T01:25:46;8.20;99.90
56162;DHT22;42045;52.986;6.014;2023-04-16T01:28:12;8.20;99.90
56162;DHT22;42045;52.986;6.014;2023-04-16T01:30:37;8.20;99.90
56162;DHT22;42045;52.986;6.014;2023-04-16T01:33:03;8.20;99.90
56162;DHT22;42045;52.986;6.014;2023-04-16T01:35:29;8.20;99.90
56162;DHT22;42045;52.986;6.014;2023-04-16T01:37:55;8.20;99.90
56162;DHT22;42045;52.986;6.014;2023-04-16T01:40:20;8.30;99.90
56162;DHT22;42045;52.986;6.014;2023-04-16T01:42:46;8.20;99.90
56162;DHT22;42045;52.986;6.014;2023-04-16T01:45:12;8.30;99.90
56162;DHT22;42045;52.986;6.014;2023-04-16T01:47:37;8.20;99.90
56162;DHT22;42045;52.986;6.014;2023-04-16T01:50:04;8.30;99.90
56162;DHT22;42045;52.986;6.014;2023-04-16T01:52:30;8.20;99.90
56162;DHT22;42045;52.986;6.014;2023-04-16T01:54:55;8.20;99.90
56162;DHT22;42045;52.986;6.014;2023-04-16T01:57:21;8.30;99.90
56162;DHT22;42045;52.986;6.014;2023-04-16T01:59:47;8.20;99.90
56162;DHT22;42045;52.986;6.014;2023-04-16T02:02:14;8.30;99.90
56162;DHT22;42045;52.986;6.014;2023-04-16T02:04:43;8.20;99.90
56162;DHT22;42045;52.986;6.014;2023-04-16T02:07:10;8.30;99.90
56162;DHT22;42045;52.986;6.014;2023-04-16T02:09:37;8.20;99.90
56162;DHT22;42045;52.986;6.014;2023-04-16T02:12:03;8.20;99.90
56162;DHT22;42045;52.986;6.014;2023-04-16T02:14:30;8.20;99.90
56162;DHT22;42045;52.986;6.014;2023-04-16T02:16:56;8.20;99.90
56162;DHT22;42045;52.986;6.014;2023-04-16T02:19:22;8.20;99.90
56162;DHT22;42045;52.986;6.014;2023-04-16T02:21:47;8.20;99.90
56162;DHT22;42045;52.986;6.014;2023-04-16T02:24:13;8.20;99.90
56162;DHT22;42045;52.986;6.014;2023-04-16T02:26:39;8.20;99.90
56162;DHT22;42045;52.986;6.014;2023-04-16T02:29:05;8.20;99.90
56162;DHT22;42045;52.986;6.014;2023-04-16T02:31:31;8.20;99.90
56162;DHT22;42045;52.986;6.014;2023-04-16T02:33:57;8.20;99.90
56162;DHT22;42045;52.986;6.014;2023-04-16T02:36:23;8.20;99.90
56162;DHT22;42045;52.986;6.014;2023-04-16T02:38:48;8.20;99.90
56162;DHT22;42045;52.986;6.014;2023-04-16T02:41:14;8.10;99.90
56162;DHT22;42045;52.986;6.014;2023-04-16T02:43:40;8.20;99.90
56162;DHT22;42045;52.986;6.014;2023-04-16T02:46:06;8.10;99.90
56162;DHT22;42045;52.986;6.014;2023-04-16T02:48:31;8.20;99.90
56162;DHT22;42045;52.986;6.014;2023-04-16T02:50:57;8.20;99.90
56162;DHT22;42045;52.986;6.014;2023-04-16T02:53:23;8.20;99.90
56162;DHT22;42045;52.986;6.014;2023-04-16T02:55:52;8.20;99.90
56162;DHT22;42045;52.986;6.014;2023-04-16T02:58:22;8.10;99.90
56162;DHT22;42045;52.986;6.014;2023-04-16T03:00:48;8.10;99.90
56162;DHT22;42045;52.986;6.014;2023-04-16T03:03:14;8.10;99.90
56162;DHT22;42045;52.986;6.014;2023-04-16T03:05:40;8.00;99.90
56162;DHT22;42045;52.986;6.014;2023-04-16T03:08:06;8.00;99.90
56162;DHT22;42045;52.986;6.014;2023-04-16T03:10:32;8.00;99.90
56162;DHT22;42045;52.986;6.014;2023-04-16T03:12:59;8.00;99.90
56162;DHT22;42045;52.986;6.014;2023-04-16T03:15:25;8.00;99.90
56162;DHT22;42045;52.986;6.014;2023-04-16T03:17:51;8.10;99.90
56162;DHT22;42045;52.986;6.014;2023-04-16T03:20:17;8.10;99.90
56162;DHT22;42045;52.986;6.014;2023-04-16T03:22:44;8.10;99.90
56162;DHT22;42045;52.986;6.014;2023-04-16T03:25:10;8.10;99.90
56162;DHT22;42045;52.986;6.014;2023-04-16T03:27:36;8.10;99.90
56162;DHT22;42045;52.986;6.014;2023-04-16T03:30:07;8.10;99.90
56162;DHT22;42045;52.986;6.014;2023-04-16T03:32:35;8.10;99.90
56162;DHT22;42045;52.986;6.014;2023-04-16T03:35:05;8.10;99.90
56162;DHT22;42045;52.986;6.014;2023-04-16T03:37:32;8.10;99.90
56162;DHT22;42045;52.986;6.014;2023-04-16T03:39:57;8.10;99.90
56162;DHT22;42045;52.986;6.014;2023-04-16T03:42:23;8.10;99.90
56162;DHT22;42045;52.986;6.014;2023-04-16T03:44:49;8.10;99.90
56162;DHT22;42045;52.986;6.014;2023-04-16T03:47:15;8.10;99.90
56162;DHT22;42045;52.986;6.014;2023-04-16T03:49:41;8.10;99.90
56162;DHT22;42045;52.986;6.014;2023-04-16T03:52:06;8.20;99.90
56162;DHT22;42045;52.986;6.014;2023-04-16T03:54:32;8.20;99.90
56162;DHT22;42045;52.986;6.014;2023-04-16T03:56:58;8.20;99.90
56162;DHT22;42045;52.986;6.014;2023-04-16T03:59:23;8.20;99.90
56162;DHT22;42045;52.986;6.014;2023-04-16T04:01:49;8.20;99.90
56162;DHT22;42045;52.986;6.014;2023-04-16T04:04:15;8.20;99.90
56162;DHT22;42045;52.986;6.014;2023-04-16T04:06:41;8.20;99.90
56162;DHT22;42045;52.986;6.014;2023-04-16T04:09:06;8.20;99.90
56162;DHT22;42045;52.986;6.014;2023-04-16T04:11:32;8.20;99.90
56162;DHT22;42045;52.986;6.014;2023-04-16T04:13:58;8.20;99.90
56162;DHT22;42045;52.986;6.014;2023-04-16T04:16:24;8.20;99.90
56162;DHT22;42045;52.986;6.014;2023-04-16T04:18:50;8.30;99.90
56162;DHT22;42045;52.986;6.014;2023-04-16T04:21:15;8.30;99.90
56162;DHT22;42045;52.986;6.014;2023-04-16T04:23:41;8.30;99.90
56162;DHT22;42045;52.986;6.014;2023-04-16T04:26:08;8.30;99.90
56162;DHT22;42045;52.986;6.014;2023-04-16T04:28:34;8.30;99.90
56162;DHT22;42045;52.986;6.014;2023-04-16T04:31:00;8.30;99.90
56162;DHT22;42045;52.986;6.014;2023-04-16T04:33:27;8.30;99.90
56162;DHT22;42045;52.986;6.014;2023-04-16T04:35:53;8.30;99.90
56162;DHT22;42045;52.986;6.014;2023-04-16T04:38:20;8.30;99.90
56162;DHT22;42045;52.986;6.014;2023-04-16T04:40:50;8.30;99.90
56162;DHT22;42045;52.986;6.014;2023-04-16T04:43:16;8.30;99.90
56162;DHT22;42045;52.986;6.014;2023-04-16T04:45:42;8.30;99.90
56162;DHT22;42045;52.986;6.014;2023-04-16T04:48:07;8.30;99.90
56162;DHT22;42045;52.986;6.014;2023-04-16T04:50:33;8.30;99.90
56162;DHT22;42045;52.986;6.014;2023-04-16T04:52:59;8.30;99.90
56162;DHT22;42045;52.986;6.014;2023-04-16T04:55:24;8.30;99.90
56162;DHT22;42045;52.986;6.014;2023-04-16T04:57:50;8.30;99.90
56162;DHT22;42045;52.986;6.014;2023-04-16T05:00:16;8.40;99.90
56162;DHT22;42045;52.986;6.014;2023-04-16T05:02:41;8.30;99.90
56162;DHT22;42045;52.986;6.014;2023-04-16T05:05:07;8.40;99.90
56162;DHT22;42045;52.986;6.014;2023-04-16T05:07:33;8.40;99.90
56162;DHT22;42045;52.986;6.014;2023-04-16T05:09:59;8.50;99.90
56162;DHT22;42045;52.986;6.014;2023-04-16T05:12:24;8.40;99.90
56162;DHT22;42045;52.986;6.014;2023-04-16T05:14:50;8.50;99.90
56162;DHT22;42045;52.986;6.014;2023-04-16T05:17:16;8.50;99.90
56162;DHT22;42045;52.986;6.014;2023-04-16T05:19:42;8.50;99.90
56162;DHT22;42045;52.986;6.014;2023-04-16T05:22:07;8.60;99.90
56162;DHT22;42045;52.986;6.014;2023-04-16T05:24:33;8.60;99.90
56162;DHT22;42045;52.986;6.014;2023-04-16T05:26:58;8.60;99.90
56162;DHT22;42045;52.986;6.014;2023-04-16T05:29:24;8.60;99.90
56162;DHT22;42045;52.986;6.014;2023-04-16T05:31:50;8.60;99.90
56162;DHT22;42045;52.986;6.014;2023-04-16T05:34:16;8.70;99.90
56162;DHT22;42045;52.986;6.014;2023-04-16T05:36:41;8.70;99.90
56162;DHT22;42045;52.986;6.014;2023-04-16T05:39:07;8.70;99.90
56162;DHT22;42045;52.986;6.014;2023-04-16T05:41:33;8.80;99.90
56162;DHT22;42045;52.986;6.014;2023-04-16T05:43:59;8.80;99.90
56162;DHT22;42045;52.986;6.014;2023-04-16T05:46:24;8.80;99.90
56162;DHT22;42045;52.986;6.014;2023-04-16T05:48:50;8.80;99.90
56162;DHT22;42045;52.986;6.014;2023-04-16T05:51:16;8.80;99.90
56162;DHT22;42045;52.986;6.014;2023-04-16T05:53:42;8.80;99.90
56162;DHT22;42045;52.986;6.014;2023-04-16T05:56:07;8.80;99.90
56162;DHT22;42045;52.986;6.014;2023-04-16T05:58:33;8.70;99.90
56162;DHT22;42045;52.986;6.014;2023-04-16T06:00:59;8.70;99.90
56162;DHT22;42045;52.986;6.014;2023-04-16T06:03:26;8.70;99.90
56162;DHT22;42045;52.986;6.014;2023-04-16T06:05:52;8.70;99.90
56162;DHT22;42045;52.986;6.014;2023-04-16T06:08:17;8.60;99.90
56162;DHT22;42045;52.986;6.014;2023-04-16T06:10:45;8.60;99.90
56162;DHT22;42045;52.986;6.014;2023-04-16T06:13:11;8.60;99.90
56162;DHT22;42045;52.986;6.014;2023-04-16T06:15:37;8.70;99.90
56162;DHT22;42045;52.986;6.014;2023-04-16T06:18:02;8.70;99.90
56162;DHT22;42045;52.986;6.014;2023-04-16T06:20:28;8.70;99.90
56162;DHT22;42045;52.986;6.014;2023-04-16T06:22:54;8.70;99.90
56162;DHT22;42045;52.986;6.014;2023-04-16T06:25:20;8.70;99.90
56162;DHT22;42045;52.986;6.014;2023-04-16T06:27:46;8.70;99.90
56162;DHT22;42045;52.986;6.014;2023-04-16T06:30:13;8.80;99.90
56162;DHT22;42045;52.986;6.014;2023-04-16T06:32:39;8.80;99.90
56162;DHT22;42045;52.986;6.014;2023-04-16T06:35:05;8.80;99.90
56162;DHT22;42045;52.986;6.014;2023-04-16T06:37:31;8.80;99.90
56162;DHT22;42045;52.986;6.014;2023-04-16T06:39:57;8.80;99.90
56162;DHT22;42045;52.986;6.014;2023-04-16T06:42:22;8.80;99.90
56162;DHT22;42045;52.986;6.014;2023-04-16T06:44:48;8.90;99.90
56162;DHT22;42045;52.986;6.014;2023-04-16T06:47:15;8.90;99.90
56162;DHT22;42045;52.986;6.014;2023-04-16T06:49:40;8.90;99.90
56162;DHT22;42045;52.986;6.014;2023-04-16T06:52:06;8.90;99.90
56162;DHT22;42045;52.986;6.014;2023-04-16T06:54:32;8.90;99.90
56162;DHT22;42045;52.986;6.014;2023-04-16T06:56:58;8.90;99.90
56162;DHT22;42045;52.986;6.014;2023-04-16T06:59:23;9.00;99.90
56162;DHT22;42045;52.986;6.014;2023-04-16T07:01:50;9.00;99.90
56162;DHT22;42045;52.986;6.014;2023-04-16T07:04:16;9.00;99.90
56162;DHT22;42045;52.986;6.014;2023-04-16T07:06:42;9.00;99.90
56162;DHT22;42045;52.986;6.014;2023-04-16T07:09:07;9.00;99.90
56162;DHT22;42045;52.986;6.014;2023-04-16T07:11:33;9.10;99.90
56162;DHT22;42045;52.986;6.014;2023-04-16T07:13:58;9.10;99.90
56162;DHT22;42045;52.986;6.014;2023-04-16T07:16:24;9.20;99.90
56162;DHT22;42045;52.986;6.014;2023-04-16T07:18:50;9.10;99.90
56162;DHT22;42045;52.986;6.014;2023-04-16T07:21:16;9.20;99.90
56162;DHT22;42045;52.986;6.014;2023-04-16T07:23:41;9.20;99.90
56162;DHT22;42045;52.986;6.014;2023-04-16T07:26:07;9.20;99.90
56162;DHT22;42045;52.986;6.014;2023-04-16T07:28:33;9.20;99.90
56162;DHT22;42045;52.986;6.014;2023-04-16T07:30:58;9.30;99.90
56162;DHT22;42045;52.986;6.014;2023-04-16T07:33:24;9.20;99.90
56162;DHT22;42045;52.986;6.014;2023-04-16T07:35:50;9.20;99.90
56162;DHT22;42045;52.986;6.014;2023-04-16T07:38:16;9.30;99.90
56162;DHT22;42045;52.986;6.014;2023-04-16T07:40:41;9.40;99.90
56162;DHT22;42045;52.986;6.014;2023-04-16T07:43:07;9.40;99.90
56162;DHT22;42045;52.986;6.014;2023-04-16T07:45:33;9.40;99.90
56162;DHT22;42045;52.986;6.014;2023-04-16T07:47:59;9.40;99.90
56162;DHT22;42045;52.986;6.014;2023-04-16T07:50:24;9.50;99.90
56162;DHT22;42045;52.986;6.014;2023-04-16T07:52:50;9.50;99.90
56162;DHT22;42045;52.986;6.014;2023-04-16T07:55:16;9.60;99.90
56162;DHT22;42045;52.986;6.014;2023-04-16T07:57:41;9.60;99.90
56162;DHT22;42045;52.986;6.014;2023-04-16T08:00:09;9.70;99.90
56162;DHT22;42045;52.986;6.014;2023-04-16T08:02:35;9.70;99.90
56162;DHT22;42045;52.986;6.014;2023-04-16T08:05:01;9.80;99.90
56162;DHT22;42045;52.986;6.014;2023-04-16T08:07:27;9.80;99.90
56162;DHT22;42045;52.986;6.014;2023-04-16T08:09:53;9.80;99.90
56162;DHT22;42045;52.986;6.014;2023-04-16T08:12:19;9.90;99.90
56162;DHT22;42045;52.986;6.014;2023-04-16T08:14:45;9.90;99.90
56162;DHT22;42045;52.986;6.014;2023-04-16T08:17:12;9.90;99.90
56162;DHT22;42045;52.986;6.014;2023-04-16T08:19:38;9.90;99.90
56162;DHT22;42045;52.986;6.014;2023-04-16T08:22:04;10.00;99.90
56162;DHT22;42045;52.986;6.014;2023-04-16T08:24:30;10.10;99.90
56162;DHT22;42045;52.986;6.014;2023-04-16T08:26:56;10.20;99.90
56162;DHT22;42045;52.986;6.014;2023-04-16T08:29:22;10.40;99.90
56162;DHT22;42045;52.986;6.014;2023-04-16T08:31:53;10.50;99.90
56162;DHT22;42045;52.986;6.014;2023-04-16T08:34:19;10.50;99.90
56162;DHT22;42045;52.986;6.014;2023-04-16T08:36:45;10.60;99.90
56162;DHT22;42045;52.986;6.014;2023-04-16T08:39:11;10.50;99.90
56162;DHT22;42045;52.986;6.014;2023-04-16T08:41:40;10.40;99.90
56162;DHT22;42045;52.986;6.014;2023-04-16T08:44:14;10.50;99.90
56162;DHT22;42045;52.986;6.014;2023-04-16T08:46:41;10.30;99.90
56162;DHT22;42045;52.986;6.014;2023-04-16T08:49:10;10.20;99.90
56162;DHT22;42045;52.986;6.014;2023-04-16T08:51:41;10.20;99.90
56162;DHT22;42045;52.986;6.014;2023-04-16T08:54:08;10.20;99.90
56162;DHT22;42045;52.986;6.014;2023-04-16T08:56:36;10.20;99.90
56162;DHT22;42045;52.986;6.014;2023-04-16T08:59:03;10.30;99.90
56162;DHT22;42045;52.986;6.014;2023-04-16T09:01:31;10.40;99.90
56162;DHT22;42045;52.986;6.014;2023-04-16T09:03:58;10.40;99.90
56162;DHT22;42045;52.986;6.014;2023-04-16T09:06:27;10.40;99.90
56162;DHT22;42045;52.986;6.014;2023-04-16T09:08:53;10.40;99.90
56162;DHT22;42045;52.986;6.014;2023-04-16T09:11:19;10.40;99.90
56162;DHT22;42045;52.986;6.014;2023-04-16T09:13:46;10.40;99.90
56162;DHT22;42045;52.986;6.014;2023-04-16T09:16:12;10.50;99.90
56162;DHT22;42045;52.986;6.014;2023-04-16T09:18:38;10.60;99.90
56162;DHT22;42045;52.986;6.014;2023-04-16T09:21:04;10.70;99.90
56162;DHT22;42045;52.986;6.014;2023-04-16T09:23:32;10.70;99.90
56162;DHT22;42045;52.986;6.014;2023-04-16T09:25:58;10.90;99.90
56162;DHT22;42045;52.986;6.014;2023-04-16T09:28:43;11.00;99.90
56162;DHT22;42045;52.986;6.014;2023-04-16T09:31:14;11.20;99.90
56162;DHT22;42045;52.986;6.014;2023-04-16T09:33:40;11.20;99.90
56162;DHT22;42045;52.986;6.014;2023-04-16T09:36:07;11.40;99.90
56162;DHT22;42045;52.986;6.014;2023-04-16T09:38:50;11.40;99.90
56162;DHT22;42045;52.986;6.014;2023-04-16T09:41:16;11.60;99.90
56162;DHT22;42045;52.986;6.014;2023-04-16T09:43:53;11.60;99.90
56162;DHT22;42045;52.986;6.014;2023-04-16T09:46:24;11.80;99.90
56162;DHT22;42045;52.986;6.014;2023-04-16T09:48:53;11.80;99.90
56162;DHT22;42045;52.986;6.014;2023-04-16T09:51:19;11.60;99.90
56162;DHT22;42045;52.986;6.014;2023-04-16T09:53:45;11.60;99.90
56162;DHT22;42045;52.986;6.014;2023-04-16T09:56:11;11.50;99.90
56162;DHT22;42045;52.986;6.014;2023-04-16T09:58:37;11.50;99.90
56162;DHT22;42045;52.986;6.014;2023-04-16T10:01:10;11.60;99.90
56162;DHT22;42045;52.986;6.014;2023-04-16T10:03:39;11.70;99.90
56162;DHT22;42045;52.986;6.014;2023-04-16T10:06:19;11.80;99.90
56162;DHT22;42045;52.986;6.014;2023-04-16T10:08:49;11.90;99.90
56162;DHT22;42045;52.986;6.014;2023-04-16T10:11:16;12.00;99.90
56162;DHT22;42045;52.986;6.014;2023-04-16T10:13:43;12.10;99.90
56162;DHT22;42045;52.986;6.014;2023-04-16T10:16:09;12.00;99.90
56162;DHT22;42045;52.986;6.014;2023-04-16T10:18:39;12.00;99.90
56162;DHT22;42045;52.986;6.014;2023-04-16T10:21:05;11.90;99.90
56162;DHT22;42045;52.986;6.014;2023-04-16T10:23:32;11.90;99.90
56162;DHT22;42045;52.986;6.014;2023-04-16T10:26:00;11.90;99.90
56162;DHT22;42045;52.986;6.014;2023-04-16T10:28:26;12.00;99.90
56162;DHT22;42045;52.986;6.014;2023-04-16T10:30:55;12.00;99.90
56162;DHT22;42045;52.986;6.014;2023-04-16T10:33:22;12.10;99.90
56162;DHT22;42045;52.986;6.014;2023-04-16T10:35:49;12.20;99.90
56162;DHT22;42045;52.986;6.014;2023-04-16T10:38:24;12.30;99.90
56162;DHT22;42045;52.986;6.014;2023-04-16T10:40:50;12.20;99.90
56162;DHT22;42045;52.986;6.014;2023-04-16T10:43:24;12.30;99.90
56162;DHT22;42045;52.986;6.014;2023-04-16T10:45:50;12.30;99.90
56162;DHT22;42045;52.986;6.014;2023-04-16T10:48:17;12.40;99.90
56162;DHT22;42045;52.986;6.014;2023-04-16T10:50:55;12.40;99.90
56162;DHT22;42045;52.986;6.014;2023-04-16T10:53:26;12.50;99.90
56162;DHT22;42045;52.986;6.014;2023-04-16T10:58:28;12.60;99.90
56162;DHT22;42045;52.986;6.014;2023-04-16T11:00:54;12.60;99.90
56162;DHT22;42045;52.986;6.014;2023-04-16T11:03:23;12.60;99.90
56162;DHT22;42045;52.986;6.014;2023-04-16T11:05:49;12.60;99.90
56162;DHT22;42045;52.986;6.014;2023-04-16T11:08:15;12.60;99.90
56162;DHT22;42045;52.986;6.014;2023-04-16T11:10:41;12.60;99.90
56162;DHT22;42045;52.986;6.014;2023-04-16T11:13:06;12.70;99.90
56162;DHT22;42045;52.986;6.014;2023-04-16T11:15:33;12.70;99.90
56162;DHT22;42045;52.986;6.014;2023-04-16T11:17:59;12.70;99.90
56162;DHT22;42045;52.986;6.014;2023-04-16T11:20:26;12.60;99.90
56162;DHT22;42045;52.986;6.014;2023-04-16T11:22:56;12.60;99.90
56162;DHT22;42045;52.986;6.014;2023-04-16T11:25:27;12.70;99.90
56162;DHT22;42045;52.986;6.014;2023-04-16T11:27:56;12.70;99.90
56162;DHT22;42045;52.986;6.014;2023-04-16T11:30:34;12.70;99.90
56162;DHT22;42045;52.986;6.014;2023-04-16T11:33:05;12.80;99.90
56162;DHT22;42045;52.986;6.014;2023-04-16T11:35:32;12.80;99.90
56162;DHT22;42045;52.986;6.014;2023-04-16T11:37:58;12.70;99.90
56162;DHT22;42045;52.986;6.014;2023-04-16T11:40:24;12.70;99.90
56162;DHT22;42045;52.986;6.014;2023-04-16T11:42:53;12.60;99.90
56162;DHT22;42045;52.986;6.014;2023-04-16T11:45:19;12.50;99.90
56162;DHT22;42045;52.986;6.014;2023-04-16T11:47:49;12.50;99.90
56162;DHT22;42045;52.986;6.014;2023-04-16T11:50:22;12.50;99.90
56162;DHT22;42045;52.986;6.014;2023-04-16T11:52:52;12.40;99.90
56162;DHT22;42045;52.986;6.014;2023-04-16T11:55:18;12.40;99.90
56162;DHT22;42045;52.986;6.014;2023-04-16T11:57:44;12.40;99.90
56162;DHT22;42045;52.986;6.014;2023-04-16T12:00:11;12.50;99.90
56162;DHT22;42045;52.986;6.014;2023-04-16T12:02:45;12.60;99.90
56162;DHT22;42045;52.986;6.014;2023-04-16T12:05:30;12.80;99.90
56162;DHT22;42045;52.986;6.014;2023-04-16T12:07:57;12.80;99.90
56162;DHT22;42045;52.986;6.014;2023-04-16T12:10:23;12.90;99.90
56162;DHT22;42045;52.986;6.014;2023-04-16T12:12:49;13.00;99.90
56162;DHT22;42045;52.986;6.014;2023-04-16T12:15:15;13.10;99.90
56162;DHT22;42045;52.986;6.014;2023-04-16T12:17:40;13.20;99.90
56162;DHT22;42045;52.986;6.014;2023-04-16T12:20:11;13.40;99.90
56162;DHT22;42045;52.986;6.014;2023-04-16T12:22:44;13.50;99.90
56162;DHT22;42045;52.986;6.014;2023-04-16T12:25:13;13.40;99.90
56162;DHT22;42045;52.986;6.014;2023-04-16T12:27:53;13.40;99.90
56162;DHT22;42045;52.986;6.014;2023-04-16T12:30:21;13.40;99.90
56162;DHT22;42045;52.986;6.014;2023-04-16T12:32:49;13.50;99.90
56162;DHT22;42045;52.986;6.014;2023-04-16T12:35:31;13.50;99.90
56162;DHT22;42045;52.986;6.014;2023-04-16T12:37:58;13.50;99.90
56162;DHT22;42045;52.986;6.014;2023-04-16T12:40:24;13.60;99.90
56162;DHT22;42045;52.986;6.014;2023-04-16T12:42:50;13.50;99.90
56162;DHT22;42045;52.986;6.014;2023-04-16T12:45:16;13.30;99.90
56162;DHT22;42045;52.986;6.014;2023-04-16T12:47:41;13.40;99.90
56162;DHT22;42045;52.986;6.014;2023-04-16T12:50:07;13.50;99.90
56162;DHT22;42045;52.986;6.014;2023-04-16T12:52:33;13.70;99.90
56162;DHT22;42045;52.986;6.014;2023-04-16T12:55:01;13.90;99.90
56162;DHT22;42045;52.986;6.014;2023-04-16T12:57:27;13.90;99.90
56162;DHT22;42045;52.986;6.014;2023-04-16T12:59:57;13.80;99.90
56162;DHT22;42045;52.986;6.014;2023-04-16T13:02:23;13.90;99.90
56162;DHT22;42045;52.986;6.014;2023-04-16T13:04:51;14.10;99.90
56162;DHT22;42045;52.986;6.014;2023-04-16T13:07:17;14.00;99.90
56162;DHT22;42045;52.986;6.014;2023-04-16T13:09:44;13.80;99.90
56162;DHT22;42045;52.986;6.014;2023-04-16T13:12:10;13.90;99.90
56162;DHT22;42045;52.986;6.014;2023-04-16T13:14:36;13.90;99.90
56162;DHT22;42045;52.986;6.014;2023-04-16T13:17:01;14.10;99.90
56162;DHT22;42045;52.986;6.014;2023-04-16T13:19:31;14.10;99.90
56162;DHT22;42045;52.986;6.014;2023-04-16T13:21:57;14.10;99.90
56162;DHT22;42045;52.986;6.014;2023-04-16T13:24:23;14.20;99.90
56162;DHT22;42045;52.986;6.014;2023-04-16T13:26:50;13.90;99.90
56162;DHT22;42045;52.986;6.014;2023-04-16T13:29:21;13.90;99.90
56162;DHT22;42045;52.986;6.014;2023-04-16T13:31:47;13.90;99.90
56162;DHT22;42045;52.986;6.014;2023-04-16T13:34:12;14.10;99.90
56162;DHT22;42045;52.986;6.014;2023-04-16T13:36:38;14.20;99.90
56162;DHT22;42045;52.986;6.014;2023-04-16T13:39:04;14.10;99.90
56162;DHT22;42045;52.986;6.014;2023-04-16T13:41:35;14.10;99.90
56162;DHT22;42045;52.986;6.014;2023-04-16T13:44:01;14.10;99.90
56162;DHT22;42045;52.986;6.014;2023-04-16T13:46:26;14.10;99.90
56162;DHT22;42045;52.986;6.014;2023-04-16T13:48:53;14.10;99.90
56162;DHT22;42045;52.986;6.014;2023-04-16T13:51:19;14.10;99.90
56162;DHT22;42045;52.986;6.014;2023-04-16T13:53:45;14.20;99.90
56162;DHT22;42045;52.986;6.014;2023-04-16T13:56:11;14.10;99.90
56162;DHT22;42045;52.986;6.014;2023-04-16T13:58:37;14.10;99.90
56162;DHT22;42045;52.986;6.014;2023-04-16T14:01:03;14.20;99.90
56162;DHT22;42045;52.986;6.014;2023-04-16T14:03:29;14.30;99.90
56162;DHT22;42045;52.986;6.014;2023-04-16T14:05:54;14.30;99.90
56162;DHT22;42045;52.986;6.014;2023-04-16T14:08:20;14.30;99.90
56162;DHT22;42045;52.986;6.014;2023-04-16T14:10:49;14.40;99.90
56162;DHT22;42045;52.986;6.014;2023-04-16T14:13:15;14.50;99.90
56162;DHT22;42045;52.986;6.014;2023-04-16T14:15:40;14.50;99.90
56162;DHT22;42045;52.986;6.014;2023-04-16T14:18:06;14.50;99.90
56162;DHT22;42045;52.986;6.014;2023-04-16T14:20:32;14.60;99.90
56162;DHT22;42045;52.986;6.014;2023-04-16T14:22:57;14.80;99.90
56162;DHT22;42045;52.986;6.014;2023-04-16T14:25:23;14.80;99.90
56162;DHT22;42045;52.986;6.014;2023-04-16T14:27:49;14.80;99.90
56162;DHT22;42045;52.986;6.014;2023-04-16T14:30:15;14.80;99.90
56162;DHT22;42045;52.986;6.014;2023-04-16T14:32:41;14.70;99.90
56162;DHT22;42045;52.986;6.014;2023-04-16T14:35:07;14.60;99.90
56162;DHT22;42045;52.986;6.014;2023-04-16T14:37:33;14.60;99.90
56162;DHT22;42045;52.986;6.014;2023-04-16T14:40:03;14.50;99.90
56162;DHT22;42045;52.986;6.014;2023-04-16T14:42:32;14.70;99.90
56162;DHT22;42045;52.986;6.014;2023-04-16T14:44:58;14.60;99.90
56162;DHT22;42045;52.986;6.014;2023-04-16T14:47:24;14.60;99.90
56162;DHT22;42045;52.986;6.014;2023-04-16T14:49:50;14.60;99.90
56162;DHT22;42045;52.986;6.014;2023-04-16T14:52:16;14.50;99.90
56162;DHT22;42045;52.986;6.014;2023-04-16T14:54:41;14.40;99.90
56162;DHT22;42045;52.986;6.014;2023-04-16T14:57:07;14.10;99.90
56162;DHT22;42045;52.986;6.014;2023-04-16T14:59:33;14.00;99.90
56162;DHT22;42045;52.986;6.014;2023-04-16T15:01:58;13.90;99.90
56162;DHT22;42045;52.986;6.014;2023-04-16T15:04:24;13.80;99.90
56162;DHT22;42045;52.986;6.014;2023-04-16T15:06:50;13.50;99.90
56162;DHT22;42045;52.986;6.014;2023-04-16T15:09:16;13.70;99.90
56162;DHT22;42045;52.986;6.014;2023-04-16T15:11:41;13.80;99.90
56162;DHT22;42045;52.986;6.014;2023-04-16T15:14:07;13.80;99.90
56162;DHT22;42045;52.986;6.014;2023-04-16T15:16:32;13.80;99.90
56162;DHT22;42045;52.986;6.014;2023-04-16T15:18:58;13.80;99.90
56162;DHT22;42045;52.986;6.014;2023-04-16T15:21:25;13.70;99.90
56162;DHT22;42045;52.986;6.014;2023-04-16T15:23:52;13.70;99.90
56162;DHT22;42045;52.986;6.014;2023-04-16T15:26:18;13.60;99.90
56162;DHT22;42045;52.986;6.014;2023-04-16T15:28:44;13.60;99.90
56162;DHT22;42045;52.986;6.014;2023-04-16T15:31:09;13.60;99.90
56162;DHT22;42045;52.986;6.014;2023-04-16T15:33:35;13.60;99.90
56162;DHT22;42045;52.986;6.014;2023-04-16T15:36:01;13.60;99.90
56162;DHT22;42045;52.986;6.014;2023-04-16T15:38:28;13.60;99.90